createdAt,value
2019-05-03T00:04:15.870Z,63.79
2019-05-03T00:09:18.484Z,64.44
2019-05-03T00:14:21.808Z,65.00
2019-05-03T00:19:23.981Z,66.66
2019-05-03T00:24:25.914Z,66.98
2019-05-03T00:29:27.915Z,65.99
2019-05-03T00:34:47.073Z,65.05
2019-05-03T00:40:01.896Z,65.51
2019-05-03T00:45:08.484Z,65.88
2019-05-03T00:50:12.029Z,64.87
2019-05-03T00:55:16.983Z,65.04
2019-05-03T01:00:18.316Z,65.24
2019-05-03T01:05:20.192Z,66.22
2019-05-03T01:10:22.762Z,66.41
2019-05-03T01:15:32.342Z,65.93
2019-05-03T01:20:34.180Z,66.55
2019-05-03T01:25:36.140Z,66.63
2019-05-03T01:30:38.138Z,68.27
2019-05-03T01:35:40.063Z,69.26
2019-05-03T01:40:42.057Z,68.67
2019-05-03T01:45:43.961Z,68.27
2019-05-03T01:50:56.457Z,68.09
2019-05-03T01:55:58.507Z,68.52
2019-05-03T02:01:17.519Z,67.61
2019-05-03T02:06:19.455Z,68.47
2019-05-03T02:11:22.249Z,70.03
2019-05-03T02:16:24.317Z,70.67
2019-05-03T02:21:26.249Z,69.46
2019-05-03T02:26:28.186Z,68.80
2019-05-03T02:31:32.692Z,68.79
2019-05-03T02:36:33.996Z,68.63
2019-05-03T02:41:36.072Z,68.81
2019-05-03T02:46:39.756Z,69.29
2019-05-03T02:51:41.601Z,67.64
2019-05-03T02:56:45.832Z,70.16
2019-05-03T03:01:47.392Z,71.24
2019-05-03T03:06:51.362Z,71.37
2019-05-03T03:11:56.851Z,70.27
2019-05-03T03:17:01.545Z,69.14
2019-05-03T03:22:05.873Z,69.41
2019-05-03T03:27:11.846Z,69.57
2019-05-03T03:32:20.402Z,69.74
2019-05-03T03:37:22.591Z,68.69
2019-05-03T03:42:25.142Z,67.85
2019-05-03T03:47:28.975Z,69.05
2019-05-03T03:52:32.289Z,69.31
2019-05-03T03:57:36.112Z,68.61
2019-05-03T04:02:38.589Z,69.07
2019-05-03T04:07:40.762Z,69.78
2019-05-03T04:12:45.438Z,72.68
2019-05-03T04:17:52.622Z,74.10
2019-05-03T04:22:56.096Z,74.82
2019-05-03T04:27:58.514Z,73.92
2019-05-03T04:33:00.438Z,73.25
2019-05-03T04:38:05.306Z,73.55
2019-05-03T04:43:06.577Z,72.62
2019-05-03T04:48:08.669Z,72.07
2019-05-03T04:53:10.549Z,67.98
2019-05-03T04:58:12.471Z,66.41
2019-05-03T05:03:15.155Z,64.43
2019-05-03T05:08:17.186Z,62.65
2019-05-03T05:13:19.156Z,60.55
2019-05-03T05:18:26.386Z,59.17
2019-05-03T05:23:28.584Z,59.51
2019-05-03T05:28:32.212Z,58.69
2019-05-03T05:33:35.340Z,60.13
2019-05-03T05:38:37.434Z,58.95
2019-05-03T05:43:39.383Z,58.28
2019-05-03T05:48:49.248Z,56.88
2019-05-03T05:53:51.202Z,58.19
2019-05-03T05:58:55.376Z,56.42
2019-05-03T06:03:57.707Z,55.70
2019-05-03T06:09:10.735Z,52.85
2019-05-03T06:20:21.546Z,49.95
2019-05-03T06:25:31.194Z,49.72
2019-05-03T06:30:37.878Z,48.28
2019-05-03T06:35:41.335Z,47.85
2019-05-03T06:40:44.684Z,50.46
2019-05-03T06:45:50.481Z,48.12
2019-05-03T06:50:50.764Z,46.74
2019-05-03T06:55:52.758Z,46.76
2019-05-03T07:00:57.650Z,43.23
2019-05-03T07:06:17.567Z,47.05
2019-05-03T07:11:20.611Z,47.11
2019-05-03T07:16:22.542Z,44.56
2019-05-03T07:21:24.822Z,41.41
2019-05-03T07:26:27.021Z,41.69
2019-05-03T07:31:28.874Z,38.54
2019-05-03T07:36:30.808Z,39.64
2019-05-03T07:41:32.777Z,38.73
2019-05-03T07:46:34.999Z,37.42
2019-05-03T07:51:36.963Z,38.62
2019-05-03T07:56:40.676Z,39.74
2019-05-03T08:01:45.575Z,37.05
2019-05-03T08:06:47.826Z,38.75
2019-05-03T08:11:49.696Z,37.97
2019-05-03T08:16:51.639Z,37.59
2019-05-03T08:21:56.459Z,35.76
2019-05-03T08:26:57.341Z,40.61
2019-05-03T08:32:16.174Z,33.99
2019-05-03T08:37:20.078Z,33.19
2019-05-03T08:42:25.389Z,34.62
2019-05-03T08:47:27.531Z,38.73
2019-05-03T08:52:29.459Z,37.58
2019-05-03T08:57:31.507Z,34.11
2019-05-03T09:02:34.590Z,34.84
2019-05-03T09:07:36.661Z,35.42
2019-05-03T09:12:57.247Z,32.96
2019-05-03T09:17:59.236Z,36.00
2019-05-03T09:23:01.311Z,31.68
2019-05-03T09:28:04.683Z,33.27
2019-05-03T09:33:09.027Z,34.50
2019-05-03T09:38:10.719Z,34.82
2019-05-03T09:43:15.109Z,34.82
2019-05-03T09:48:17.371Z,35.24
2019-05-03T09:53:21.218Z,35.24
2019-05-03T09:58:23.138Z,34.55
2019-05-03T10:03:24.995Z,36.77
2019-05-03T10:08:26.899Z,32.97
2019-05-03T10:13:28.778Z,31.49
2019-05-03T10:18:30.744Z,32.42
2019-05-03T10:23:35.784Z,30.07
2019-05-03T10:28:38.231Z,30.05
2019-05-03T10:33:47.962Z,30.23
2019-05-03T10:38:49.903Z,26.11
2019-05-03T10:43:51.933Z,27.83
2019-05-03T10:48:55.862Z,25.62
2019-05-03T10:53:59.519Z,22.57
2019-05-03T10:59:06.461Z,22.62
2019-05-03T11:04:08.402Z,25.34
2019-05-03T11:09:10.452Z,23.21
2019-05-03T11:14:14.762Z,22.78
2019-05-03T11:19:16.544Z,22.53
2019-05-03T11:24:18.579Z,23.75
2019-05-03T11:29:20.506Z,25.59
2019-05-03T11:34:25.337Z,23.44
2019-05-03T11:39:38.073Z,25.61
2019-05-03T11:44:40.042Z,24.07
2019-05-03T11:49:42.097Z,24.57
2019-05-03T11:54:45.251Z,26.42
2019-05-03T11:59:47.640Z,27.99
2019-05-03T12:04:49.473Z,27.79
2019-05-03T12:09:51.464Z,27.72
2019-05-03T12:14:54.814Z,28.36
2019-05-03T12:19:58.323Z,28.22
2019-05-03T12:25:01.304Z,28.16
2019-05-03T12:30:07.130Z,28.49
2019-05-03T12:35:10.633Z,29.13
2019-05-03T12:40:14.939Z,25.23
2019-05-03T12:45:17.263Z,28.86
2019-05-03T12:50:19.463Z,28.51
2019-05-03T12:55:21.526Z,28.66
2019-05-03T13:00:34.597Z,27.06
2019-05-03T13:05:36.810Z,28.39
2019-05-03T13:10:39.951Z,25.96
2019-05-03T13:15:41.934Z,27.88
2019-05-03T13:20:45.379Z,27.47
2019-05-03T13:25:47.559Z,27.12
2019-05-03T13:30:49.444Z,26.17
2019-05-03T13:35:51.408Z,25.59
2019-05-03T13:40:54.371Z,27.02
2019-05-03T13:45:56.729Z,28.41
2019-05-03T13:50:58.574Z,29.75
2019-05-03T13:56:00.561Z,27.98
2019-05-03T14:01:02.579Z,28.34
2019-05-03T14:06:08.688Z,26.89
2019-05-03T14:11:08.605Z,25.29
2019-05-03T14:16:10.545Z,26.92
2019-05-03T14:21:15.079Z,28.03
2019-05-03T14:26:18.281Z,28.47
2019-05-03T14:31:20.197Z,26.32
2019-05-03T14:36:25.060Z,27.07
2019-05-03T14:41:27.308Z,26.95
2019-05-03T14:46:33.166Z,26.57
2019-05-03T14:51:34.958Z,27.32
2019-05-03T14:56:40.208Z,27.96
2019-05-03T15:01:43.902Z,28.11
2019-05-03T15:06:46.144Z,29.09
2019-05-03T15:11:48.188Z,29.75
2019-05-03T15:16:50.209Z,29.11
2019-05-03T15:21:52.065Z,29.07
2019-05-03T15:26:55.370Z,29.55
2019-05-03T15:31:57.447Z,29.56
2019-05-03T15:36:59.333Z,29.11
2019-05-03T15:42:01.244Z,30.09
2019-05-03T15:47:09.499Z,30.02
2019-05-03T15:52:11.727Z,30.50
2019-05-03T15:57:14.468Z,28.37
2019-05-03T16:02:16.480Z,30.22
2019-05-03T16:07:18.543Z,28.30
2019-05-03T16:12:20.573Z,33.31
2019-05-03T16:17:24.382Z,31.24
2019-05-03T16:22:26.674Z,33.76
2019-05-03T16:27:30.496Z,33.05
2019-05-03T16:32:34.705Z,31.72
2019-05-03T16:37:37.331Z,33.21
2019-05-03T16:42:39.160Z,32.00
2019-05-03T16:47:41.084Z,29.80
2019-05-03T16:52:45.575Z,31.36
2019-05-03T16:57:48.757Z,31.24
2019-05-03T17:02:50.637Z,34.51
2019-05-03T17:08:11.230Z,33.47
2019-05-03T17:13:14.822Z,37.06
2019-05-03T17:18:17.301Z,36.21
2019-05-03T17:23:19.574Z,35.16
2019-05-03T17:28:21.956Z,36.53
2019-05-03T17:33:25.323Z,37.33
2019-05-03T17:38:27.335Z,37.15
2019-05-03T17:43:31.369Z,37.53
2019-05-03T17:48:35.625Z,37.67
2019-05-03T17:53:40.598Z,37.38
2019-05-03T17:58:55.187Z,41.84
2019-05-03T18:04:18.402Z,38.88
2019-05-03T18:09:22.256Z,39.72
2019-05-03T18:14:25.143Z,38.23
2019-05-03T18:19:27.884Z,39.82
2019-05-03T18:24:30.031Z,40.61
2019-05-03T18:29:34.428Z,41.43
2019-05-03T18:34:36.510Z,41.87
2019-05-03T18:39:40.722Z,41.42
2019-05-03T18:44:48.019Z,42.43
2019-05-03T18:49:50.318Z,42.33
2019-05-03T18:54:55.047Z,43.31
2019-05-03T18:59:57.198Z,43.81
2019-05-03T19:05:00.175Z,42.53
2019-05-03T19:10:25.224Z,42.76
2019-05-03T19:15:29.544Z,42.99
2019-05-03T19:20:32.430Z,43.61
2019-05-03T19:25:45.925Z,45.45
2019-05-03T19:30:41.805Z,46.06
2019-05-03T19:35:44.503Z,44.56
2019-05-03T19:40:46.502Z,44.34
2019-05-03T19:45:48.793Z,44.67
2019-05-03T19:50:51.448Z,45.58
2019-05-03T19:55:55.302Z,46.11
2019-05-03T20:01:05.799Z,45.88
2019-05-03T20:06:14.363Z,45.58
2019-05-03T20:11:17.673Z,46.31
2019-05-03T20:16:19.858Z,46.69
2019-05-03T20:21:21.843Z,47.86
2019-05-03T20:26:25.294Z,48.56
2019-05-03T20:31:27.469Z,47.58
2019-05-03T20:36:29.411Z,49.40
2019-05-03T20:41:31.369Z,50.48
2019-05-03T20:46:37.818Z,50.44
2019-05-03T20:51:39.811Z,50.49
2019-05-03T20:56:42.694Z,51.86
2019-05-03T21:01:45.314Z,50.39
2019-05-03T21:06:47.264Z,49.89
2019-05-03T21:11:49.200Z,51.75
2019-05-03T21:16:55.575Z,52.79
2019-05-03T21:22:02.471Z,51.53
2019-05-03T21:27:05.709Z,49.59
2019-05-03T21:32:07.837Z,51.00
2019-05-03T21:37:09.713Z,52.69
2019-05-03T21:42:11.597Z,51.03
2019-05-03T21:47:15.543Z,49.42
2019-05-03T21:52:17.410Z,49.89
2019-05-03T21:57:19.319Z,50.11
2019-05-03T22:02:21.813Z,50.23
2019-05-03T22:07:25.116Z,50.22
2019-05-03T22:12:27.487Z,52.02
2019-05-03T22:17:47.875Z,51.01
2019-05-03T22:22:55.410Z,50.38
2019-05-03T22:27:57.535Z,49.86
2019-05-03T22:32:59.438Z,50.68
2019-05-03T22:38:03.974Z,50.33
2019-05-03T22:43:05.031Z,50.38
2019-05-03T22:48:06.896Z,51.23
2019-05-03T22:53:08.801Z,51.69
2019-05-03T22:58:10.780Z,51.64
2019-05-03T23:03:14.495Z,52.00
2019-05-03T23:08:16.540Z,53.63
2019-05-03T23:13:18.419Z,52.98
2019-05-03T23:18:20.342Z,53.86
2019-05-03T23:23:40.559Z,54.97
2019-05-03T23:28:44.524Z,54.76
2019-05-03T23:33:46.651Z,54.75
2019-05-03T23:38:48.611Z,53.71
2019-05-03T23:43:50.420Z,52.89
2019-05-03T23:48:52.356Z,54.99
2019-05-03T23:53:55.025Z,54.08
2019-05-03T23:58:57.073Z,54.43
